createdAt,value
2023-05-13T00:02:08.240Z,66.90
2023-05-13T00:04:34.954Z,66.90
2023-05-13T00:07:01.784Z,66.90
2023-05-13T00:09:28.467Z,66.80
2023-05-13T00:11:55.284Z,67.00
2023-05-13T00:14:21.875Z,66.80
2023-05-13T00:16:48.595Z,66.90
2023-05-13T00:19:15.312Z,66.90
2023-05-13T00:21:41.872Z,66.90
2023-05-13T00:24:08.532Z,66.90
2023-05-13T00:26:35.173Z,66.80
2023-05-13T00:29:01.822Z,66.90
2023-05-13T00:31:28.635Z,66.90
2023-05-13T00:33:55.341Z,66.90
2023-05-13T00:36:21.929Z,66.70
2023-05-13T00:38:48.567Z,67.00
2023-05-13T00:41:15.467Z,66.90
2023-05-13T00:43:42.016Z,67.00
2023-05-13T00:46:08.879Z,66.90
2023-05-13T00:48:35.734Z,66.90
2023-05-13T00:51:02.455Z,66.90
2023-05-13T00:53:30.724Z,66.90
2023-05-13T00:55:57.310Z,66.80
2023-05-13T00:58:23.907Z,66.90
2023-05-13T01:00:54.821Z,66.80
2023-05-13T01:03:36.361Z,66.90
2023-05-13T01:06:16.884Z,66.80
2023-05-13T01:08:49.380Z,66.80
2023-05-13T01:11:27.336Z,66.90
2023-05-13T01:14:16.519Z,66.80
2023-05-13T01:16:52.821Z,66.70
2023-05-13T01:19:46.329Z,66.80
2023-05-13T01:22:13.212Z,66.80
2023-05-13T01:24:39.978Z,66.70
2023-05-13T01:27:07.487Z,66.80
2023-05-13T01:29:34.428Z,66.70
2023-05-13T01:32:02.001Z,66.70
2023-05-13T01:34:29.510Z,66.70
2023-05-13T01:36:56.311Z,66.70
2023-05-13T01:39:24.290Z,66.70
2023-05-13T01:41:51.141Z,66.70
2023-05-13T01:44:17.768Z,66.60
2023-05-13T01:46:44.692Z,66.60
2023-05-13T01:49:11.382Z,66.60
2023-05-13T01:51:38.299Z,66.70
2023-05-13T01:54:05.540Z,66.60
2023-05-13T01:56:32.182Z,66.70
2023-05-13T01:58:58.822Z,66.60
2023-05-13T02:01:25.523Z,66.70
2023-05-13T02:03:52.225Z,66.60
2023-05-13T02:06:19.228Z,66.70
2023-05-13T02:08:46.038Z,66.60
2023-05-13T02:11:12.612Z,66.50
2023-05-13T02:13:39.146Z,66.60
2023-05-13T02:16:05.911Z,66.50
2023-05-13T02:18:32.633Z,66.50
2023-05-13T02:20:59.228Z,66.50
2023-05-13T02:23:25.803Z,66.60
2023-05-13T02:25:52.420Z,66.60
2023-05-13T02:28:18.994Z,66.50
2023-05-13T02:30:45.555Z,66.20
2023-05-13T02:33:12.680Z,66.30
2023-05-13T02:35:39.356Z,66.30
2023-05-13T02:38:05.966Z,66.30
2023-05-13T02:40:32.697Z,66.40
2023-05-13T02:42:59.263Z,66.40
2023-05-13T02:45:25.970Z,66.50
2023-05-13T02:47:52.627Z,66.40
2023-05-13T02:50:19.647Z,66.30
2023-05-13T02:52:46.339Z,66.60
2023-05-13T02:55:12.969Z,66.50
2023-05-13T02:57:39.549Z,66.50
2023-05-13T03:00:07.008Z,66.50
2023-05-13T03:02:35.065Z,66.40
2023-05-13T03:05:01.825Z,66.40
2023-05-13T03:07:28.362Z,66.40
2023-05-13T03:09:54.974Z,66.40
2023-05-13T03:12:21.617Z,66.50
2023-05-13T03:14:48.180Z,66.40
2023-05-13T03:17:14.792Z,66.50
2023-05-13T03:19:41.398Z,66.40
2023-05-13T03:22:07.994Z,66.40
2023-05-13T03:24:34.585Z,66.20
2023-05-13T03:27:01.244Z,66.10
2023-05-13T03:29:27.777Z,66.30
2023-05-13T03:31:54.615Z,66.30
2023-05-13T03:34:21.260Z,66.20
2023-05-13T03:36:47.928Z,66.20
2023-05-13T03:39:14.588Z,66.20
2023-05-13T03:41:41.329Z,66.30
2023-05-13T03:44:07.901Z,66.30
2023-05-13T03:46:34.587Z,66.20
2023-05-13T03:49:01.153Z,66.30
2023-05-13T03:51:27.797Z,67.00
2023-05-13T03:53:54.387Z,66.40
2023-05-13T03:56:21.566Z,66.30
2023-05-13T03:58:48.220Z,66.30
2023-05-13T04:01:14.788Z,66.40
2023-05-13T04:03:44.141Z,66.30
2023-05-13T04:06:10.877Z,66.30
2023-05-13T04:08:37.669Z,66.20
2023-05-13T04:11:04.396Z,66.30
2023-05-13T04:13:32.566Z,66.10
2023-05-13T04:15:59.162Z,66.10
2023-05-13T04:18:25.836Z,65.90
2023-05-13T04:20:52.520Z,66.00
2023-05-13T04:23:19.147Z,65.90
2023-05-13T04:25:52.171Z,65.70
2023-05-13T04:28:19.667Z,65.90
2023-05-13T04:30:46.338Z,65.90
2023-05-13T04:33:12.995Z,65.90
2023-05-13T04:35:39.777Z,65.70
2023-05-13T04:38:06.485Z,65.70
2023-05-13T04:40:33.167Z,65.80
2023-05-13T04:42:59.814Z,65.80
2023-05-13T04:45:26.452Z,65.80
2023-05-13T04:47:53.448Z,65.90
2023-05-13T04:50:21.194Z,65.90
2023-05-13T04:52:48.487Z,65.80
2023-05-13T04:55:15.258Z,65.80
2023-05-13T04:57:41.900Z,66.00
2023-05-13T05:00:09.460Z,66.00
2023-05-13T05:02:36.187Z,66.10
2023-05-13T05:05:03.259Z,66.10
2023-05-13T05:07:29.805Z,66.00
2023-05-13T05:09:56.480Z,66.00
2023-05-13T05:12:23.278Z,66.00
2023-05-13T05:14:49.927Z,65.90
2023-05-13T05:17:16.583Z,66.00
2023-05-13T05:19:43.339Z,65.90
2023-05-13T05:22:09.888Z,65.90
2023-05-13T05:24:36.433Z,65.90
2023-05-13T05:27:03.090Z,65.70
2023-05-13T05:29:30.018Z,65.60
2023-05-13T05:31:57.060Z,66.00
2023-05-13T05:34:23.801Z,65.70
2023-05-13T05:36:50.511Z,65.80
2023-05-13T05:39:17.082Z,65.80
2023-05-13T05:41:43.772Z,65.60
2023-05-13T05:44:39.074Z,65.60
2023-05-13T05:47:03.693Z,65.90
2023-05-13T05:49:30.269Z,65.70
2023-05-13T05:51:56.902Z,65.90
2023-05-13T05:54:23.470Z,66.00
2023-05-13T05:56:50.133Z,65.90
2023-05-13T05:59:16.733Z,66.00
2023-05-13T06:01:43.369Z,65.90
2023-05-13T06:04:10.037Z,66.00
2023-05-13T06:06:36.841Z,65.70
2023-05-13T06:09:03.616Z,65.40
2023-05-13T06:11:30.288Z,65.50
2023-05-13T06:13:57.578Z,65.40
2023-05-13T06:16:24.397Z,65.50
2023-05-13T06:18:51.084Z,65.60
2023-05-13T06:21:17.816Z,65.60
2023-05-13T06:23:44.464Z,65.90
2023-05-13T06:26:11.055Z,65.60
2023-05-13T06:28:37.691Z,65.70
2023-05-13T06:31:04.313Z,65.60
2023-05-13T06:33:30.969Z,65.40
2023-05-13T06:35:57.638Z,65.60
2023-05-13T06:38:24.269Z,65.30
2023-05-13T06:40:50.856Z,65.40
2023-05-13T06:43:18.110Z,65.50
2023-05-13T06:45:45.832Z,65.60
2023-05-13T06:48:13.500Z,65.50
2023-05-13T06:50:40.898Z,65.50
2023-05-13T06:53:08.766Z,65.60
2023-05-13T06:55:41.368Z,65.50
2023-05-13T06:58:09.187Z,65.50
2023-05-13T07:00:40.426Z,65.60
2023-05-13T07:03:08.000Z,65.70
2023-05-13T07:05:35.388Z,65.40
2023-05-13T07:08:08.485Z,65.90
2023-05-13T07:10:36.119Z,65.60
2023-05-13T07:13:03.246Z,65.40
2023-05-13T07:15:29.984Z,65.60
2023-05-13T07:17:56.660Z,65.80
2023-05-13T07:20:23.909Z,65.50
2023-05-13T07:22:51.371Z,65.60
2023-05-13T07:25:18.864Z,65.30
2023-05-13T07:27:45.722Z,65.60
2023-05-13T07:30:12.702Z,65.20
2023-05-13T07:32:40.161Z,65.30
2023-05-13T07:35:07.765Z,65.50
2023-05-13T07:37:34.347Z,65.50
2023-05-13T07:40:00.937Z,65.70
2023-05-13T07:42:29.770Z,65.20
2023-05-13T07:44:56.469Z,65.30
2023-05-13T07:47:23.362Z,65.40
2023-05-13T07:49:50.451Z,65.20
2023-05-13T07:52:17.154Z,65.30
2023-05-13T07:54:43.808Z,65.50
2023-05-13T07:57:10.408Z,66.10
2023-05-13T07:59:36.979Z,65.30
2023-05-13T08:02:03.748Z,65.30
2023-05-13T08:04:30.463Z,65.20
2023-05-13T08:06:57.125Z,65.70
2023-05-13T08:09:24.392Z,65.60
2023-05-13T08:11:51.011Z,65.70
2023-05-13T08:14:17.587Z,65.40
2023-05-13T08:16:44.228Z,65.60
2023-05-13T08:19:10.886Z,65.50
2023-05-13T08:21:37.491Z,65.20
2023-05-13T08:24:04.200Z,65.30
2023-05-13T08:26:30.772Z,65.30
2023-05-13T08:28:57.927Z,65.30
2023-05-13T08:31:25.280Z,65.30
2023-05-13T08:33:53.298Z,65.30
2023-05-13T08:36:21.328Z,65.50
2023-05-13T08:38:47.917Z,65.30
2023-05-13T08:41:15.374Z,65.40
2023-05-13T08:43:43.362Z,65.50
2023-05-13T08:46:11.798Z,65.60
2023-05-13T08:48:42.183Z,65.60
2023-05-13T08:51:09.640Z,65.60
2023-05-13T08:53:39.148Z,65.40
2023-05-13T08:56:07.663Z,65.50
2023-05-13T08:58:34.278Z,65.40
2023-05-13T09:01:01.632Z,65.30
2023-05-13T09:03:29.351Z,65.40
2023-05-13T09:05:56.279Z,65.40
2023-05-13T09:08:22.889Z,65.60
2023-05-13T09:10:49.799Z,65.60
2023-05-13T09:13:18.646Z,65.30
2023-05-13T09:15:45.756Z,65.40
2023-05-13T09:18:14.764Z,65.30
2023-05-13T09:20:43.117Z,65.60
2023-05-13T09:23:11.009Z,65.30
2023-05-13T09:25:39.034Z,65.70
2023-05-13T09:28:07.691Z,65.60
2023-05-13T09:30:36.857Z,65.40
2023-05-13T09:33:12.563Z,65.70
2023-05-13T09:35:44.502Z,65.50
2023-05-13T09:38:28.887Z,65.80
2023-05-13T09:41:00.684Z,65.70
2023-05-13T09:43:31.319Z,65.70
2023-05-13T09:46:02.426Z,65.60
2023-05-13T09:48:32.789Z,65.60
2023-05-13T09:50:59.711Z,65.70
2023-05-13T09:53:27.338Z,65.30
2023-05-13T09:55:56.293Z,65.60
2023-05-13T09:58:24.503Z,65.60
2023-05-13T10:00:51.907Z,65.70
2023-05-13T10:03:18.612Z,65.60
2023-05-13T10:05:45.945Z,65.70
2023-05-13T10:08:13.713Z,65.60
2023-05-13T10:10:41.389Z,65.50
2023-05-13T10:13:14.735Z,65.60
2023-05-13T10:15:51.765Z,65.60
2023-05-13T10:18:19.861Z,65.60
2023-05-13T10:20:47.777Z,65.60
2023-05-13T10:23:14.999Z,65.50
2023-05-13T10:25:42.871Z,65.60
2023-05-13T10:28:10.695Z,65.60
2023-05-13T10:30:38.156Z,65.60
2023-05-13T10:33:04.971Z,65.30
2023-05-13T10:35:38.590Z,65.60
2023-05-13T10:38:43.472Z,65.60
2023-05-13T10:41:47.524Z,65.60
2023-05-13T10:44:14.174Z,65.40
2023-05-13T10:46:43.231Z,65.40
2023-05-13T10:49:17.548Z,65.50
2023-05-13T10:51:49.109Z,65.40
2023-05-13T10:54:24.683Z,65.40
2023-05-13T10:57:01.143Z,65.40
2023-05-13T10:59:30.458Z,65.50
2023-05-13T11:01:57.414Z,65.50
2023-05-13T11:04:24.094Z,65.50
2023-05-13T11:06:51.964Z,65.50
2023-05-13T11:09:28.872Z,65.60
2023-05-13T11:11:57.880Z,65.60
2023-05-13T11:14:30.128Z,65.60
2023-05-13T11:17:04.183Z,65.20
2023-05-13T11:19:33.008Z,65.40
2023-05-13T11:22:10.720Z,65.40
2023-05-13T11:24:37.448Z,65.40
2023-05-13T11:27:18.430Z,65.30
2023-05-13T11:30:06.848Z,65.30
2023-05-13T11:32:52.244Z,65.30
2023-05-13T11:35:32.873Z,65.30
2023-05-13T11:38:01.936Z,65.40
2023-05-13T11:40:33.822Z,65.40
2023-05-13T11:43:01.533Z,65.30
2023-05-13T11:45:29.172Z,64.90
2023-05-13T11:47:56.489Z,65.20
2023-05-13T11:50:30.836Z,65.20
2023-05-13T11:52:59.464Z,65.40
2023-05-13T11:55:29.908Z,65.30
2023-05-13T11:57:57.290Z,65.30
2023-05-13T12:00:31.472Z,65.30
2023-05-13T12:02:59.122Z,65.20
2023-05-13T12:05:27.261Z,65.20
2023-05-13T12:07:58.090Z,65.30
2023-05-13T12:10:25.885Z,65.20
2023-05-13T12:12:52.923Z,65.30
2023-05-13T12:15:21.522Z,65.30
2023-05-13T12:17:49.351Z,65.40
2023-05-13T12:20:20.518Z,65.30
2023-05-13T12:22:47.291Z,65.50
2023-05-13T12:25:35.706Z,65.40
2023-05-13T12:28:10.758Z,65.30
2023-05-13T12:30:38.699Z,65.20
2023-05-13T12:33:05.689Z,65.00
2023-05-13T12:35:32.966Z,65.00
2023-05-13T12:38:04.669Z,65.10
2023-05-13T12:40:31.803Z,65.20
2023-05-13T12:42:59.558Z,65.20
2023-05-13T12:45:31.242Z,65.20
2023-05-13T12:47:58.769Z,65.20
2023-05-13T12:50:26.268Z,65.10
2023-05-13T12:52:54.022Z,65.20
2023-05-13T12:55:21.341Z,65.30
2023-05-13T12:57:57.329Z,65.40
2023-05-13T13:00:24.911Z,65.30
2023-05-13T13:02:53.620Z,65.30
2023-05-13T13:05:24.786Z,65.20
2023-05-13T13:07:51.682Z,65.20
2023-05-13T13:10:18.458Z,65.30
2023-05-13T13:12:45.173Z,65.30
2023-05-13T13:15:12.282Z,65.30
2023-05-13T13:17:38.981Z,65.30
2023-05-13T13:20:07.370Z,65.30
2023-05-13T13:22:36.981Z,65.20
2023-05-13T13:25:07.518Z,65.10
2023-05-13T13:27:34.911Z,65.20
2023-05-13T13:30:01.630Z,65.20
2023-05-13T13:32:28.248Z,65.20
2023-05-13T13:34:54.994Z,65.20
2023-05-13T13:37:21.602Z,65.10
2023-05-13T13:39:48.232Z,65.20
2023-05-13T13:42:14.855Z,65.10
2023-05-13T13:44:41.458Z,64.90
2023-05-13T13:47:09.204Z,65.10
2023-05-13T13:49:35.880Z,65.10
2023-05-13T13:52:02.533Z,65.10
2023-05-13T13:54:29.299Z,65.10
2023-05-13T13:56:56.022Z,65.10
2023-05-13T13:59:22.829Z,65.10
2023-05-13T14:01:49.472Z,65.10
2023-05-13T14:04:20.060Z,65.10
2023-05-13T14:06:46.908Z,65.20
2023-05-13T14:09:13.524Z,65.10
2023-05-13T14:11:40.222Z,65.10
2023-05-13T14:14:07.036Z,65.10
2023-05-13T14:16:33.812Z,65.10
2023-05-13T14:19:00.517Z,65.20
2023-05-13T14:21:27.183Z,65.10
2023-05-13T14:23:53.827Z,65.10
2023-05-13T14:26:21.053Z,65.10
2023-05-13T14:28:47.661Z,65.20
2023-05-13T14:31:14.338Z,65.10
2023-05-13T14:33:41.021Z,65.10
2023-05-13T14:36:09.433Z,65.10
2023-05-13T14:38:36.117Z,65.30
2023-05-13T14:41:02.739Z,65.10
2023-05-13T14:43:29.371Z,65.10
2023-05-13T14:45:56.052Z,65.10
2023-05-13T14:48:22.672Z,65.10
2023-05-13T14:50:49.300Z,65.10
2023-05-13T14:53:15.860Z,65.10
2023-05-13T14:55:42.457Z,65.10
2023-05-13T14:58:09.619Z,65.20
2023-05-13T15:00:39.823Z,65.10
2023-05-13T15:03:06.707Z,65.10
2023-05-13T15:05:33.570Z,65.10
2023-05-13T15:08:00.873Z,65.10
2023-05-13T15:10:27.422Z,65.20
2023-05-13T15:12:54.010Z,65.10
2023-05-13T15:15:20.618Z,65.10
2023-05-13T15:17:47.390Z,65.10
2023-05-13T15:20:14.041Z,65.10
2023-05-13T15:22:40.630Z,65.10
2023-05-13T15:25:07.939Z,65.10
2023-05-13T15:27:34.727Z,65.10
2023-05-13T15:30:01.512Z,65.10
2023-05-13T15:32:28.234Z,65.10
2023-05-13T15:34:54.807Z,65.10
2023-05-13T15:37:21.380Z,65.90
2023-05-13T15:39:47.947Z,65.10
2023-05-13T15:42:14.555Z,65.20
2023-05-13T15:44:41.116Z,65.10
2023-05-13T15:47:07.827Z,65.10
2023-05-13T15:49:34.526Z,65.20
2023-05-13T15:52:01.435Z,65.10
2023-05-13T15:54:28.008Z,65.10
2023-05-13T15:56:56.433Z,65.10
2023-05-13T15:59:23.037Z,65.10
2023-05-13T16:01:49.774Z,65.10
2023-05-13T16:04:16.729Z,65.10
2023-05-13T16:06:43.356Z,65.10
2023-05-13T16:09:10.576Z,65.10
2023-05-13T16:11:37.282Z,65.10
2023-05-13T16:14:04.590Z,65.10
2023-05-13T16:16:31.384Z,65.10
2023-05-13T16:18:58.696Z,65.90
2023-05-13T16:21:25.654Z,65.10
2023-05-13T16:23:52.320Z,65.20
2023-05-13T16:26:18.926Z,65.10
2023-05-13T16:28:45.899Z,65.10
2023-05-13T16:31:12.515Z,65.20
2023-05-13T16:33:39.128Z,65.20
2023-05-13T16:36:06.706Z,65.10
2023-05-13T16:38:35.262Z,65.20
2023-05-13T16:41:01.958Z,65.20
2023-05-13T16:43:28.981Z,65.20
2023-05-13T16:45:56.176Z,65.10
2023-05-13T16:48:22.871Z,65.20
2023-05-13T16:50:49.564Z,65.10
2023-05-13T16:53:16.244Z,65.20
2023-05-13T16:55:42.862Z,65.20
2023-05-13T16:58:09.560Z,65.10
2023-05-13T17:00:36.120Z,65.10
2023-05-13T17:03:03.240Z,65.10
2023-05-13T17:05:31.756Z,65.10
2023-05-13T17:07:58.435Z,65.10
2023-05-13T17:10:25.205Z,65.10
2023-05-13T17:12:51.974Z,65.10
2023-05-13T17:15:19.223Z,65.10
2023-05-13T17:17:45.935Z,65.00
2023-05-13T17:20:12.850Z,64.90
2023-05-13T17:22:44.380Z,64.90
2023-05-13T17:25:11.133Z,64.70
2023-05-13T17:27:37.742Z,64.80
2023-05-13T17:30:04.659Z,64.70
2023-05-13T17:32:31.670Z,64.80
2023-05-13T17:34:59.152Z,64.70
2023-05-13T17:37:25.706Z,64.70
2023-05-13T17:39:52.371Z,64.70
2023-05-13T17:42:19.040Z,64.60
2023-05-13T17:44:45.676Z,64.70
2023-05-13T17:47:12.307Z,65.00
2023-05-13T17:49:38.891Z,65.00
2023-05-13T17:52:06.083Z,64.90
2023-05-13T17:54:32.662Z,65.00
2023-05-13T17:56:59.190Z,65.70
2023-05-13T17:59:25.801Z,65.00
2023-05-13T18:01:52.433Z,65.00
2023-05-13T18:04:19.087Z,64.90
2023-05-13T18:06:45.735Z,64.90
2023-05-13T18:09:12.320Z,64.90
2023-05-13T18:11:38.943Z,64.90
2023-05-13T18:14:06.729Z,65.90
2023-05-13T18:16:33.431Z,65.10
2023-05-13T18:19:00.095Z,65.10
2023-05-13T18:21:28.851Z,65.10
2023-05-13T18:23:56.113Z,65.10
2023-05-13T18:26:23.081Z,65.10
2023-05-13T18:28:49.706Z,65.10
2023-05-13T18:31:16.328Z,65.20
2023-05-13T18:33:42.940Z,65.10
2023-05-13T18:36:10.306Z,65.10
2023-05-13T18:38:37.033Z,65.10
2023-05-13T18:41:04.642Z,65.90
2023-05-13T18:43:31.288Z,65.20
2023-05-13T18:45:58.310Z,65.20
2023-05-13T18:48:25.171Z,65.10
2023-05-13T18:50:52.979Z,65.10
2023-05-13T18:53:19.905Z,65.20
2023-05-13T18:55:46.601Z,65.30
2023-05-13T18:58:13.767Z,65.20
2023-05-13T19:00:40.727Z,65.30
2023-05-13T19:03:07.704Z,65.30
2023-05-13T19:05:34.541Z,65.30
2023-05-13T19:08:01.263Z,65.30
2023-05-13T19:10:27.845Z,65.30
2023-05-13T19:12:54.522Z,65.30
2023-05-13T19:15:22.702Z,66.00
2023-05-13T19:17:49.364Z,65.30
2023-05-13T19:20:16.505Z,65.30
2023-05-13T19:22:43.437Z,65.30
2023-05-13T19:25:10.210Z,65.30
2023-05-13T19:27:37.622Z,65.30
2023-05-13T19:30:04.769Z,65.30
2023-05-13T19:32:31.457Z,65.30
2023-05-13T19:34:58.085Z,65.30
2023-05-13T19:37:26.241Z,65.30
2023-05-13T19:39:52.802Z,65.20
2023-05-13T19:42:19.479Z,65.30
2023-05-13T19:44:46.132Z,65.20
2023-05-13T19:47:12.873Z,65.30
2023-05-13T19:49:39.474Z,65.30
2023-05-13T19:52:06.967Z,65.20
2023-05-13T19:54:33.630Z,65.20
2023-05-13T19:57:00.390Z,65.20
2023-05-13T19:59:27.577Z,65.20
2023-05-13T20:01:54.171Z,65.20
2023-05-13T20:04:20.769Z,65.20
2023-05-13T20:06:47.407Z,65.20
2023-05-13T20:09:14.381Z,65.20
2023-05-13T20:11:41.045Z,65.30
2023-05-13T20:14:07.684Z,65.20
2023-05-13T20:16:34.473Z,65.20
2023-05-13T20:19:01.195Z,65.30
2023-05-13T20:21:27.906Z,65.40
2023-05-13T20:23:54.614Z,65.30
2023-05-13T20:26:21.935Z,65.30
2023-05-13T20:28:51.267Z,65.30
2023-05-13T20:31:18.104Z,65.30
2023-05-13T20:33:44.786Z,65.30
2023-05-13T20:36:11.423Z,65.30
2023-05-13T20:38:38.027Z,65.30
2023-05-13T20:41:04.834Z,65.30
2023-05-13T20:43:33.619Z,65.40
2023-05-13T20:46:02.477Z,65.30
2023-05-13T20:48:31.847Z,65.40
2023-05-13T20:51:02.006Z,65.40
2023-05-13T20:53:28.568Z,65.30
2023-05-13T20:55:55.285Z,65.30
2023-05-13T20:58:21.862Z,65.40
2023-05-13T21:00:48.469Z,65.30
2023-05-13T21:03:15.103Z,65.30
2023-05-13T21:05:41.799Z,65.30
2023-05-13T21:08:08.409Z,65.30
2023-05-13T21:10:35.069Z,65.30
2023-05-13T21:13:01.762Z,65.30
2023-05-13T21:15:28.596Z,65.30
2023-05-13T21:17:55.471Z,65.30
2023-05-13T21:20:22.346Z,65.20
2023-05-13T21:22:49.201Z,65.30
2023-05-13T21:25:15.901Z,65.30
2023-05-13T21:27:42.568Z,65.30
2023-05-13T21:30:10.100Z,65.30
2023-05-13T21:32:36.741Z,65.30
2023-05-13T21:35:03.534Z,65.30
2023-05-13T21:37:30.294Z,65.40
2023-05-13T21:39:56.877Z,65.30
2023-05-13T21:42:23.520Z,65.30
2023-05-13T21:44:50.212Z,65.30
2023-05-13T21:47:16.855Z,65.30
2023-05-13T21:49:43.997Z,65.30
2023-05-13T21:52:10.680Z,65.30
2023-05-13T21:54:37.313Z,65.30
2023-05-13T21:57:04.373Z,65.30
2023-05-13T21:59:30.971Z,65.30
2023-05-13T22:01:57.652Z,65.30
2023-05-13T22:04:26.387Z,65.30
2023-05-13T22:06:53.389Z,65.30
2023-05-13T22:09:20.084Z,65.30
2023-05-13T22:11:46.678Z,65.40
2023-05-13T22:14:13.908Z,65.40
2023-05-13T22:16:41.125Z,65.40
2023-05-13T22:19:07.897Z,65.30
2023-05-13T22:21:34.584Z,66.10
2023-05-13T22:24:01.223Z,65.20
2023-05-13T22:26:27.948Z,65.10
2023-05-13T22:28:54.578Z,65.20
2023-05-13T22:31:21.416Z,65.10
2023-05-13T22:33:48.092Z,65.10
2023-05-13T22:36:15.110Z,65.10
2023-05-13T22:38:44.611Z,65.10
2023-05-13T22:41:12.084Z,65.10
2023-05-13T22:43:39.214Z,65.20
2023-05-13T22:46:05.904Z,65.10
2023-05-13T22:48:32.540Z,65.20
2023-05-13T22:50:59.242Z,65.20
2023-05-13T22:53:26.005Z,65.20
2023-05-13T22:55:52.757Z,65.10
2023-05-13T22:58:22.207Z,65.10
2023-05-13T23:00:49.555Z,65.10
2023-05-13T23:03:16.204Z,65.30
2023-05-13T23:05:42.955Z,65.10
2023-05-13T23:08:09.866Z,65.20
2023-05-13T23:10:36.885Z,65.20
2023-05-13T23:13:06.260Z,65.20
2023-05-13T23:15:33.221Z,65.10
2023-05-13T23:17:59.967Z,65.30
2023-05-13T23:20:26.679Z,65.30
2023-05-13T23:22:54.454Z,65.10
2023-05-13T23:25:21.422Z,65.30
2023-05-13T23:27:48.023Z,65.20
2023-05-13T23:30:15.271Z,65.20
2023-05-13T23:32:41.957Z,65.20
2023-05-13T23:35:09.099Z,65.10
2023-05-13T23:37:36.358Z,66.00
2023-05-13T23:40:03.330Z,65.20
2023-05-13T23:42:29.949Z,65.10
2023-05-13T23:44:56.824Z,65.20
2023-05-13T23:47:23.463Z,65.20
2023-05-13T23:49:50.108Z,65.20
2023-05-13T23:52:16.903Z,65.10
2023-05-13T23:54:43.503Z,65.20
2023-05-13T23:57:10.101Z,65.20
2023-05-13T23:59:36.734Z,65.20
